Weather History for Perry, FL

Change the Weather History Date:

Sunday, May 26, 2013

  Actual Average (KCTY) Record (KCTY)
Temperature  
Mean Temperature 72 °F 77 °F  
Max Temperature 90 °F 90 °F 97 °F (2012)
Min Temperature 53 °F 65 °F 54 °F (2013)
Degree Days  
Heating Degree Days 0 0  
Month to date heating degree days 0  
Since 1 July heating degree days 1303  
Cooling Degree Days 6 12  
Month to date cooling degree days 234  
Year to date cooling degree days 416  
Growing Degree Days 22 (Base 50)    
Moisture  
Dew Point 55 °F    
Average Humidity 60    
Maximum Humidity 94    
Minimum Humidity 23    
Precipitation  
Precipitation 0.01 in 0.10 in 0.07 in (2014)
Month to date precipitation 1.96  
Year to date precipitation 16.44  
Sea Level Pressure  
Sea Level Pressure 30.19 in    
Wind  
Wind Speed 4 mph (SE)    
Max Wind Speed 12 mph    
Max Gust Speed -    
Visibility 9 miles    
Events      
T = Trace of Precipitation, MM = Missing Value Source: NWS Daily Summary

Daily Weather History Graph

Daily Weather History Graph

Search for Another Location

Airport:

Trip Planner

Search our weather history database for the weather conditions in past years. The results will help you decide how hot, cold, wet, or windy it might be!

Date:

Astronomy

May. 26, 2013 Rise Set
Actual Time 6:35 AM EDT 8:27 PM EDT
Civil Twilight 6:08 AM EDT 8:54 PM EDT
Nautical Twilight 5:36 AM EDT 9:27 PM EDT
Astronomical Twilight 5:01 AM EDT 10:01 PM EDT
Moon 10:16 PM EDT 8:02 AM EDT
Length of Visible Light 14h 46m
Length of Day
13h 52m
Waning Gibbous, 97% of the Moon is Illuminated
May 26
Waning Gibbous
May 31
Last Quarter
Jun 8
New
Jun 16
First Quarter
Jun 23
Full

Hourly Weather History & Observations

Time (EDT) Temp. Heat Index Dew Point Humidity Pressure Visibility Wind Dir Wind Speed Gust Speed Precip Events Conditions
12:15 AM 68.0 °F - 55.4 °F 64% 30.21 in 10.0 mi ESE 8.1 mph - N/A   Clear
12:35 AM 68.0 °F - 53.6 °F 60% 30.21 in 10.0 mi ESE 8.1 mph - N/A   Clear
12:53 AM 69.1 °F - 54.0 °F 58% 30.19 in - ESE 8.1 mph - N/A   Unknown
12:55 AM 66.2 °F - 53.6 °F 64% 30.21 in 10.0 mi ESE 8.1 mph - N/A   Clear
1:15 AM 66.2 °F - 53.6 °F 64% 30.20 in 10.0 mi ESE 6.9 mph - N/A   Clear
1:35 AM 64.4 °F - 53.6 °F 68% 30.20 in 10.0 mi SE 6.9 mph - N/A   Clear
1:53 AM 64.9 °F - 54.0 °F 68% 30.17 in - SE 5.8 mph - N/A   Unknown
1:55 AM 64.4 °F - 53.6 °F 68% 30.19 in 10.0 mi ESE 5.8 mph - N/A   Clear
2:15 AM 62.6 °F - 53.6 °F 72% 30.18 in 10.0 mi SE 5.8 mph - N/A   Clear
2:35 AM 62.6 °F - 53.6 °F 72% 30.18 in 10.0 mi SE 4.6 mph - N/A   Clear
2:53 AM 63.0 °F - 54.0 °F 72% 30.17 in - SSE 3.5 mph - N/A   Unknown
2:55 AM 62.6 °F - 53.6 °F 72% 30.18 in 10.0 mi Calm Calm - N/A   Clear
3:15 AM 60.8 °F - 53.6 °F 77% 30.18 in 10.0 mi Calm Calm - N/A   Clear
3:35 AM 60.8 °F - 53.6 °F 77% 30.18 in 10.0 mi Calm Calm - N/A   Clear
3:53 AM 60.1 °F - 53.1 °F 78% 30.17 in - Calm Calm - N/A   Unknown
3:55 AM 59.0 °F - 53.6 °F 82% 30.18 in 10.0 mi Calm Calm - N/A   Clear
4:15 AM 57.2 °F - 53.6 °F 88% 30.18 in 10.0 mi Calm Calm - N/A   Clear
4:35 AM 57.2 °F - 53.6 °F 88% 30.18 in 10.0 mi Calm Calm - N/A   Clear
4:53 AM 57.0 °F - 53.1 °F 87% 30.17 in - Calm Calm - 0.01 in   Unknown
4:55 AM 55.4 °F - 53.6 °F 94% 30.18 in 10.0 mi Calm Calm - N/A   Clear
5:15 AM 55.4 °F - 53.6 °F 94% 30.19 in 7.0 mi Calm Calm - N/A   Clear
5:35 AM 53.6 °F - 51.8 °F 94% 30.19 in 3.0 mi Calm Calm - N/A   Clear
5:53 AM 54.0 °F - 52.0 °F 93% 30.19 in - Calm Calm - N/A   Unknown
5:55 AM 53.6 °F - 51.8 °F 94% 30.20 in 1.5 mi Calm Calm - N/A   Mist
6:15 AM 53.6 °F - 51.8 °F 94% 30.20 in 10.0 mi Calm Calm - N/A   Clear
6:35 AM 53.6 °F - 51.8 °F 94% 30.21 in 10.0 mi Calm Calm - N/A   Clear
6:53 AM 57.0 °F - 53.1 °F 87% 30.21 in - Calm Calm - N/A   Unknown
6:55 AM 53.6 °F - 51.8 °F 94% 30.22 in 10.0 mi Calm Calm - N/A   Clear
7:15 AM 55.4 °F - 53.6 °F 94% 30.23 in 10.0 mi ESE 3.5 mph - N/A   Clear
7:35 AM 59.0 °F - 57.2 °F 94% 30.23 in 10.0 mi Calm Calm - N/A   Clear
7:53 AM 66.0 °F - 57.0 °F 73% 30.22 in - SE 5.8 mph - N/A   Unknown
7:55 AM 62.6 °F - 59.0 °F 88% 30.23 in 10.0 mi ESE 5.8 mph - N/A   Clear
8:15 AM 64.4 °F - 57.2 °F 77% 30.24 in 1.0 mi ESE 4.6 mph - N/A   Haze
8:35 AM 68.0 °F - 57.2 °F 68% 30.24 in 2.5 mi SE 5.8 mph - N/A   Haze
8:53 AM 71.1 °F - 57.9 °F 63% 30.23 in - ESE 5.8 mph - N/A   Unknown
8:55 AM 68.0 °F - 57.2 °F 68% 30.24 in 3.0 mi ESE 4.6 mph - N/A   Haze
9:15 AM 71.6 °F - 59.0 °F 64% 30.25 in 7.0 mi SE 4.6 mph - N/A   Clear
9:35 AM 73.4 °F - 59.0 °F 61% 30.25 in 10.0 mi SSE 4.6 mph - N/A   Clear
9:53 AM 77.0 °F - 59.0 °F 54% 30.24 in - Variable 3.5 mph - N/A   Unknown
9:55 AM 73.4 °F - 59.0 °F 61% 30.25 in 10.0 mi SE 3.5 mph - N/A   Clear
10:15 AM 75.2 °F - 55.4 °F 50% 30.25 in 10.0 mi SSE 4.6 mph - N/A   Clear
10:35 AM 78.8 °F - 51.8 °F 39% 30.25 in 10.0 mi SSE 4.6 mph - N/A   Clear
10:53 AM 81.0 °F 80.5 °F 54.0 °F 39% 30.24 in - Calm Calm - N/A   Unknown
10:55 AM 78.8 °F - 51.8 °F 39% 30.25 in 10.0 mi Calm Calm - N/A   Clear
11:15 AM 78.8 °F - 50.0 °F 36% 30.25 in 10.0 mi Calm Calm - N/A   Clear
11:35 AM 78.8 °F - 50.0 °F 36% 30.25 in 10.0 mi North 3.5 mph - N/A   Clear
11:53 AM 82.9 °F - 52.0 °F 34% 30.24 in - WNW 4.6 mph - N/A   Unknown
11:55 AM 80.6 °F - 50.0 °F 34% 30.25 in 10.0 mi WNW 4.6 mph - N/A   Clear
12:15 PM 80.6 °F - 48.2 °F 32% 30.25 in 10.0 mi Calm Calm - N/A   Clear
12:35 PM 82.4 °F - 50.0 °F 32% 30.25 in 10.0 mi Calm Calm - N/A   Clear
12:53 PM 87.1 °F - 52.0 °F 30% 30.22 in - Variable 4.6 mph - N/A   Unknown
12:55 PM 82.4 °F - 46.4 °F 28% 30.23 in 10.0 mi East 5.8 mph - N/A   Clear
1:15 PM 82.4 °F - 46.4 °F 28% 30.23 in 10.0 mi NNE 9.2 mph - N/A   Clear
1:35 PM 82.4 °F - 44.6 °F 26% 30.22 in 10.0 mi Calm Calm - N/A   Clear
1:53 PM 87.1 °F - 51.1 °F 29% 30.20 in - NNW 6.9 mph - N/A   Unknown
1:55 PM 82.4 °F - 46.4 °F 28% 30.21 in 10.0 mi NNW 5.8 mph - N/A   Clear
2:15 PM 86.0 °F - 46.4 °F 25% 30.21 in 10.0 mi ESE 4.6 mph - N/A   Clear
2:35 PM 84.2 °F - 46.4 °F 27% 30.20 in 10.0 mi NNE 5.8 mph - N/A   Clear
2:53 PM 89.1 °F - 48.0 °F 24% 30.18 in - NE 8.1 mph - N/A   Unknown
2:55 PM 86.0 °F - 44.6 °F 23% 30.20 in 10.0 mi NE 8.1 mph - N/A   Clear
3:15 PM 86.0 °F - 44.6 °F 23% 30.19 in 10.0 mi NNW 3.5 mph - N/A   Clear
3:35 PM 86.0 °F - 46.4 °F 25% 30.19 in 10.0 mi ESE 4.6 mph - N/A   Clear
3:53 PM 90.0 °F - 51.1 °F 26% 30.16 in - Calm Calm - N/A   Unknown
3:55 PM 86.0 °F - 46.4 °F 25% 30.18 in 10.0 mi East 5.8 mph - N/A   Clear
4:15 PM 84.2 °F 83.8 °F 59.0 °F 42% 30.17 in 10.0 mi WSW 11.5 mph - N/A   Clear
4:35 PM 86.0 °F 84.5 °F 55.4 °F 35% 30.17 in 7.0 mi Calm Calm - N/A   Clear
4:53 PM 87.1 °F 86.5 °F 59.0 °F 39% 30.14 in - WSW 6.9 mph - N/A   Unknown
4:55 PM 84.2 °F 83.0 °F 55.4 °F 37% 30.16 in 7.0 mi WSW 5.8 mph - N/A   Clear
5:15 PM 86.0 °F - 46.4 °F 25% 30.15 in 10.0 mi ESE 4.6 mph - N/A   Clear
5:35 PM 86.0 °F - 44.6 °F 23% 30.15 in 10.0 mi NE 3.5 mph - N/A   Clear
5:53 PM 88.0 °F - 48.9 °F 26% 30.14 in - North 3.5 mph - N/A   Unknown
5:55 PM 86.0 °F - 44.6 °F 23% 30.15 in 10.0 mi Calm Calm - N/A   Clear
6:15 PM 82.4 °F 82.5 °F 59.0 °F 45% 30.15 in 10.0 mi SW 8.1 mph - N/A   Clear
6:35 PM 82.4 °F 82.9 °F 60.8 °F 48% 30.15 in 10.0 mi SW 9.2 mph - N/A   Clear
6:53 PM 84.0 °F 84.5 °F 62.1 °F 47% 30.13 in - SW 8.1 mph - N/A   Unknown
6:55 PM 82.4 °F 82.9 °F 60.8 °F 48% 30.15 in 10.0 mi SSW 6.9 mph - N/A   Clear
7:15 PM 80.6 °F 81.5 °F 60.8 °F 51% 30.15 in 10.0 mi SW 8.1 mph - N/A   Clear
7:35 PM 80.6 °F 81.8 °F 62.6 °F 54% 30.15 in 10.0 mi WSW 6.9 mph - N/A   Clear
7:53 PM 80.1 °F 81.7 °F 64.0 °F 58% 30.14 in - WSW 6.9 mph - N/A   Unknown
7:55 PM 78.8 °F - 62.6 °F 57% 30.15 in 10.0 mi WSW 5.8 mph - N/A   Clear
8:15 PM 77.0 °F - 62.6 °F 61% 30.16 in 10.0 mi SSW 4.6 mph - N/A   Clear
8:35 PM 75.2 °F - 62.6 °F 65% 30.16 in 10.0 mi Calm Calm - N/A   Clear
8:53 PM 73.0 °F - 63.0 °F 71% 30.14 in - SSE 3.5 mph - N/A   Unknown
8:55 PM 73.4 °F - 62.6 °F 69% 30.16 in 10.0 mi SSE 3.5 mph - N/A   Clear
9:15 PM 71.6 °F - 62.6 °F 73% 30.16 in 10.0 mi Calm Calm - N/A   Clear
9:35 PM 71.6 °F - 62.6 °F 73% 30.16 in 10.0 mi Calm Calm - N/A   Clear
9:53 PM 72.0 °F - 63.0 °F 73% 30.15 in - Calm Calm - N/A   Unknown
9:55 PM 69.8 °F - 62.6 °F 78% 30.16 in 10.0 mi Calm Calm - N/A   Clear
10:15 PM 68.0 °F - 62.6 °F 83% 30.17 in 10.0 mi Calm Calm - N/A   Clear
10:35 PM 68.0 °F - 62.6 °F 83% 30.17 in 10.0 mi Calm Calm - N/A   Clear
10:53 PM 68.0 °F - 63.0 °F 84% 30.17 in - Calm Calm - N/A   Unknown
10:55 PM 66.2 °F - 62.6 °F 88% 30.18 in 10.0 mi Calm Calm - N/A   Clear
11:15 PM 66.2 °F - 62.6 °F 88% 30.18 in 10.0 mi Calm Calm - N/A   Clear
11:35 PM 64.4 °F - 60.8 °F 88% 30.19 in 10.0 mi Calm Calm - N/A   Clear
11:53 PM 70.0 °F - 64.0 °F 81% 30.18 in - East 4.6 mph - N/A   Unknown
11:55 PM 68.0 °F - 64.4 °F 88% 30.19 in 10.0 mi East 3.5 mph - N/A   Clear